sensor_id;sensor_type;location;lat;lon;timestamp;P1;durP1;ratioP1;P2;durP2;ratioP2
38238;SDS011;24035;48.900;9.188;2022-10-16T00:01:16;3.38;;;1.05;;
38238;SDS011;24035;48.900;9.188;2022-10-16T00:03:45;2.13;;;0.73;;
38238;SDS011;24035;48.900;9.188;2022-10-16T00:06:11;1.63;;;0.70;;
38238;SDS011;24035;48.900;9.188;2022-10-16T00:08:38;4.45;;;0.80;;
38238;SDS011;24035;48.900;9.188;2022-10-16T00:11:07;1.83;;;0.73;;
38238;SDS011;24035;48.900;9.188;2022-10-16T00:13:35;2.33;;;0.82;;
38238;SDS011;24035;48.900;9.188;2022-10-16T00:16:02;1.58;;;0.60;;
38238;SDS011;24035;48.900;9.188;2022-10-16T00:18:29;1.98;;;0.60;;
38238;SDS011;24035;48.900;9.188;2022-10-16T00:20:55;2.33;;;0.63;;
38238;SDS011;24035;48.900;9.188;2022-10-16T00:23:26;1.85;;;0.60;;
38238;SDS011;24035;48.900;9.188;2022-10-16T00:25:55;1.45;;;0.70;;
38238;SDS011;24035;48.900;9.188;2022-10-16T00:28:22;1.42;;;0.50;;
38238;SDS011;24035;48.900;9.188;2022-10-16T00:30:47;1.88;;;0.80;;
38238;SDS011;24035;48.900;9.188;2022-10-16T00:33:13;3.28;;;1.02;;
38238;SDS011;24035;48.900;9.188;2022-10-16T00:35:39;4.55;;;0.80;;
38238;SDS011;24035;48.900;9.188;2022-10-16T00:38:04;1.60;;;0.50;;
38238;SDS011;24035;48.900;9.188;2022-10-16T00:40:30;2.05;;;0.80;;
38238;SDS011;24035;48.900;9.188;2022-10-16T00:42:56;3.35;;;0.70;;
38238;SDS011;24035;48.900;9.188;2022-10-16T00:45:23;2.28;;;0.90;;
38238;SDS011;24035;48.900;9.188;2022-10-16T00:47:49;3.20;;;0.90;;
38238;SDS011;24035;48.900;9.188;2022-10-16T00:50:27;1.73;;;0.68;;
38238;SDS011;24035;48.900;9.188;2022-10-16T00:52:56;1.75;;;0.75;;
38238;SDS011;24035;48.900;9.188;2022-10-16T00:55:23;2.92;;;0.88;;
38238;SDS011;24035;48.900;9.188;2022-10-16T00:57:50;2.47;;;0.95;;
38238;SDS011;24035;48.900;9.188;2022-10-16T01:00:18;1.40;;;0.52;;
38238;SDS011;24035;48.900;9.188;2022-10-16T01:02:53;1.75;;;0.50;;
38238;SDS011;24035;48.900;9.188;2022-10-16T01:05:20;3.08;;;0.77;;
38238;SDS011;24035;48.900;9.188;2022-10-16T01:08:12;1.85;;;0.70;;
38238;SDS011;24035;48.900;9.188;2022-10-16T01:10:40;2.30;;;0.88;;
38238;SDS011;24035;48.900;9.188;2022-10-16T01:13:19;1.63;;;0.60;;
38238;SDS011;24035;48.900;9.188;2022-10-16T01:15:56;1.75;;;0.52;;
38238;SDS011;24035;48.900;9.188;2022-10-16T01:18:43;1.55;;;0.60;;
38238;SDS011;24035;48.900;9.188;2022-10-16T01:21:13;0.98;;;0.40;;
38238;SDS011;24035;48.900;9.188;2022-10-16T01:26:43;2.10;;;0.60;;
38238;SDS011;24035;48.900;9.188;2022-10-16T01:29:16;2.45;;;0.60;;
38238;SDS011;24035;48.900;9.188;2022-10-16T01:31:50;2.22;;;0.60;;
38238;SDS011;24035;48.900;9.188;2022-10-16T01:34:28;1.83;;;0.55;;
38238;SDS011;24035;48.900;9.188;2022-10-16T01:37:09;2.13;;;0.50;;
38238;SDS011;24035;48.900;9.188;2022-10-16T01:39:40;2.10;;;0.60;;
38238;SDS011;24035;48.900;9.188;2022-10-16T01:42:11;1.83;;;0.70;;
38238;SDS011;24035;48.900;9.188;2022-10-16T01:44:43;1.98;;;0.50;;
38238;SDS011;24035;48.900;9.188;2022-10-16T01:47:12;2.03;;;0.77;;
38238;SDS011;24035;48.900;9.188;2022-10-16T01:49:39;1.50;;;0.40;;
38238;SDS011;24035;48.900;9.188;2022-10-16T01:52:09;2.00;;;0.60;;
38238;SDS011;24035;48.900;9.188;2022-10-16T01:54:40;1.98;;;0.50;;
38238;SDS011;24035;48.900;9.188;2022-10-16T01:57:10;2.53;;;0.70;;
38238;SDS011;24035;48.900;9.188;2022-10-16T01:59:39;1.83;;;0.70;;
38238;SDS011;24035;48.900;9.188;2022-10-16T02:02:09;2.33;;;0.73;;
38238;SDS011;24035;48.900;9.188;2022-10-16T02:04:38;3.60;;;1.15;;
38238;SDS011;24035;48.900;9.188;2022-10-16T02:07:07;2.38;;;0.70;;
38238;SDS011;24035;48.900;9.188;2022-10-16T02:09:33;6.90;;;0.80;;
38238;SDS011;24035;48.900;9.188;2022-10-16T02:12:01;2.78;;;0.60;;
38238;SDS011;24035;48.900;9.188;2022-10-16T02:14:34;2.53;;;0.75;;
38238;SDS011;24035;48.900;9.188;2022-10-16T02:17:09;1.85;;;0.50;;
38238;SDS011;24035;48.900;9.188;2022-10-16T02:19:40;1.85;;;0.70;;
38238;SDS011;24035;48.900;9.188;2022-10-16T02:22:07;1.90;;;0.80;;
38238;SDS011;24035;48.900;9.188;2022-10-16T02:24:39;2.67;;;0.70;;
38238;SDS011;24035;48.900;9.188;2022-10-16T02:27:10;1.48;;;0.50;;
38238;SDS011;24035;48.900;9.188;2022-10-16T02:29:46;3.70;;;0.95;;
38238;SDS011;24035;48.900;9.188;2022-10-16T02:32:17;1.75;;;0.68;;
38238;SDS011;24035;48.900;9.188;2022-10-16T02:34:46;2.20;;;0.90;;
38238;SDS011;24035;48.900;9.188;2022-10-16T02:37:14;2.00;;;0.70;;
38238;SDS011;24035;48.900;9.188;2022-10-16T02:39:41;3.25;;;0.75;;
38238;SDS011;24035;48.900;9.188;2022-10-16T02:42:13;2.15;;;0.60;;
38238;SDS011;24035;48.900;9.188;2022-10-16T02:44:39;1.90;;;0.57;;
38238;SDS011;24035;48.900;9.188;2022-10-16T02:47:05;3.65;;;1.02;;
38238;SDS011;24035;48.900;9.188;2022-10-16T02:49:31;2.20;;;0.70;;
38238;SDS011;24035;48.900;9.188;2022-10-16T02:51:56;1.83;;;0.73;;
38238;SDS011;24035;48.900;9.188;2022-10-16T02:54:22;2.67;;;1.00;;
38238;SDS011;24035;48.900;9.188;2022-10-16T02:56:48;2.08;;;0.70;;
38238;SDS011;24035;48.900;9.188;2022-10-16T02:59:15;2.05;;;0.50;;
38238;SDS011;24035;48.900;9.188;2022-10-16T03:01:40;1.80;;;0.68;;
38238;SDS011;24035;48.900;9.188;2022-10-16T03:04:06;2.17;;;0.60;;
38238;SDS011;24035;48.900;9.188;2022-10-16T03:06:32;1.77;;;0.65;;
38238;SDS011;24035;48.900;9.188;2022-10-16T03:08:57;1.30;;;0.45;;
38238;SDS011;24035;48.900;9.188;2022-10-16T03:11:23;2.47;;;0.95;;
38238;SDS011;24035;48.900;9.188;2022-10-16T03:13:48;3.67;;;1.00;;
38238;SDS011;24035;48.900;9.188;2022-10-16T03:16:14;1.30;;;0.50;;
38238;SDS011;24035;48.900;9.188;2022-10-16T03:18:40;1.83;;;0.60;;
38238;SDS011;24035;48.900;9.188;2022-10-16T03:21:05;3.03;;;1.52;;
38238;SDS011;24035;48.900;9.188;2022-10-16T03:23:31;2.55;;;0.98;;
38238;SDS011;24035;48.900;9.188;2022-10-16T03:25:57;2.47;;;0.63;;
38238;SDS011;24035;48.900;9.188;2022-10-16T03:28:22;1.92;;;0.80;;
38238;SDS011;24035;48.900;9.188;2022-10-16T03:30:48;2.75;;;0.73;;
38238;SDS011;24035;48.900;9.188;2022-10-16T03:33:14;4.13;;;1.05;;
38238;SDS011;24035;48.900;9.188;2022-10-16T03:35:39;3.15;;;0.85;;
38238;SDS011;24035;48.900;9.188;2022-10-16T03:38:05;3.50;;;0.90;;
38238;SDS011;24035;48.900;9.188;2022-10-16T03:40:31;3.53;;;0.70;;
38238;SDS011;24035;48.900;9.188;2022-10-16T03:42:59;2.35;;;0.80;;
38238;SDS011;24035;48.900;9.188;2022-10-16T03:45:25;3.38;;;0.60;;
38238;SDS011;24035;48.900;9.188;2022-10-16T03:47:51;2.20;;;0.73;;
38238;SDS011;24035;48.900;9.188;2022-10-16T03:50:17;1.27;;;0.60;;
38238;SDS011;24035;48.900;9.188;2022-10-16T03:52:43;2.35;;;0.80;;
38238;SDS011;24035;48.900;9.188;2022-10-16T03:55:08;2.42;;;0.77;;
38238;SDS011;24035;48.900;9.188;2022-10-16T03:57:34;2.08;;;0.80;;
38238;SDS011;24035;48.900;9.188;2022-10-16T04:00:00;2.05;;;0.77;;
38238;SDS011;24035;48.900;9.188;2022-10-16T04:02:26;2.53;;;0.73;;
38238;SDS011;24035;48.900;9.188;2022-10-16T04:04:51;1.88;;;0.70;;
38238;SDS011;24035;48.900;9.188;2022-10-16T04:07:17;1.92;;;0.70;;
38238;SDS011;24035;48.900;9.188;2022-10-16T04:09:43;2.15;;;0.70;;
38238;SDS011;24035;48.900;9.188;2022-10-16T04:12:09;2.10;;;0.73;;
38238;SDS011;24035;48.900;9.188;2022-10-16T04:14:34;1.98;;;0.77;;
38238;SDS011;24035;48.900;9.188;2022-10-16T04:17:00;1.67;;;0.50;;
38238;SDS011;24035;48.900;9.188;2022-10-16T04:19:26;1.92;;;0.60;;
38238;SDS011;24035;48.900;9.188;2022-10-16T04:21:51;2.25;;;0.80;;
38238;SDS011;24035;48.900;9.188;2022-10-16T04:24:17;1.95;;;0.70;;
38238;SDS011;24035;48.900;9.188;2022-10-16T04:26:42;9.60;;;1.02;;
38238;SDS011;24035;48.900;9.188;2022-10-16T04:29:08;2.67;;;0.85;;
38238;SDS011;24035;48.900;9.188;2022-10-16T04:31:34;1.33;;;0.40;;
38238;SDS011;24035;48.900;9.188;2022-10-16T04:33:59;1.92;;;0.52;;
38238;SDS011;24035;48.900;9.188;2022-10-16T04:36:25;2.25;;;0.68;;
38238;SDS011;24035;48.900;9.188;2022-10-16T04:38:50;2.45;;;0.80;;
38238;SDS011;24035;48.900;9.188;2022-10-16T04:41:16;3.90;;;0.50;;
38238;SDS011;24035;48.900;9.188;2022-10-16T04:43:42;1.70;;;0.63;;
38238;SDS011;24035;48.900;9.188;2022-10-16T04:46:07;1.33;;;0.50;;
38238;SDS011;24035;48.900;9.188;2022-10-16T04:48:35;2.45;;;0.60;;
38238;SDS011;24035;48.900;9.188;2022-10-16T04:51:00;2.03;;;0.75;;
38238;SDS011;24035;48.900;9.188;2022-10-16T04:53:26;2.60;;;0.60;;
38238;SDS011;24035;48.900;9.188;2022-10-16T04:55:52;2.05;;;0.43;;
38238;SDS011;24035;48.900;9.188;2022-10-16T04:58:17;1.45;;;0.50;;
38238;SDS011;24035;48.900;9.188;2022-10-16T05:00:44;2.30;;;0.60;;
38238;SDS011;24035;48.900;9.188;2022-10-16T05:03:11;1.45;;;0.85;;
38238;SDS011;24035;48.900;9.188;2022-10-16T05:05:41;1.45;;;0.60;;
38238;SDS011;24035;48.900;9.188;2022-10-16T05:08:09;1.58;;;0.60;;
38238;SDS011;24035;48.900;9.188;2022-10-16T05:10:35;4.97;;;0.60;;
38238;SDS011;24035;48.900;9.188;2022-10-16T05:13:01;2.33;;;0.73;;
38238;SDS011;24035;48.900;9.188;2022-10-16T05:15:26;1.88;;;0.70;;
38238;SDS011;24035;48.900;9.188;2022-10-16T05:17:54;2.03;;;0.57;;
38238;SDS011;24035;48.900;9.188;2022-10-16T05:20:20;1.92;;;0.80;;
38238;SDS011;24035;48.900;9.188;2022-10-16T05:22:46;1.92;;;0.70;;
38238;SDS011;24035;48.900;9.188;2022-10-16T05:25:12;4.68;;;0.70;;
38238;SDS011;24035;48.900;9.188;2022-10-16T05:27:38;1.85;;;0.50;;
38238;SDS011;24035;48.900;9.188;2022-10-16T05:30:03;3.53;;;0.70;;
38238;SDS011;24035;48.900;9.188;2022-10-16T05:32:30;2.58;;;0.80;;
38238;SDS011;24035;48.900;9.188;2022-10-16T05:34:55;2.38;;;0.80;;
38238;SDS011;24035;48.900;9.188;2022-10-16T05:37:21;2.22;;;0.65;;
38238;SDS011;24035;48.900;9.188;2022-10-16T05:39:47;2.85;;;1.00;;
38238;SDS011;24035;48.900;9.188;2022-10-16T05:42:12;7.45;;;1.35;;
38238;SDS011;24035;48.900;9.188;2022-10-16T05:44:38;3.80;;;1.00;;
38238;SDS011;24035;48.900;9.188;2022-10-16T05:47:04;3.60;;;1.02;;
38238;SDS011;24035;48.900;9.188;2022-10-16T05:49:30;4.63;;;1.20;;
38238;SDS011;24035;48.900;9.188;2022-10-16T05:51:56;3.95;;;0.80;;
38238;SDS011;24035;48.900;9.188;2022-10-16T05:54:21;2.22;;;0.95;;
38238;SDS011;24035;48.900;9.188;2022-10-16T05:56:47;4.25;;;0.77;;
38238;SDS011;24035;48.900;9.188;2022-10-16T05:59:13;1.58;;;0.60;;
38238;SDS011;24035;48.900;9.188;2022-10-16T06:01:38;2.10;;;0.70;;
38238;SDS011;24035;48.900;9.188;2022-10-16T06:04:04;4.30;;;0.98;;
38238;SDS011;24035;48.900;9.188;2022-10-16T06:06:30;1.95;;;0.63;;
38238;SDS011;24035;48.900;9.188;2022-10-16T06:08:56;1.85;;;0.70;;
38238;SDS011;24035;48.900;9.188;2022-10-16T06:11:25;5.15;;;0.85;;
38238;SDS011;24035;48.900;9.188;2022-10-16T06:13:53;1.50;;;0.60;;
38238;SDS011;24035;48.900;9.188;2022-10-16T06:16:24;2.47;;;0.80;;
38238;SDS011;24035;48.900;9.188;2022-10-16T06:18:51;2.20;;;0.90;;
38238;SDS011;24035;48.900;9.188;2022-10-16T06:21:19;2.25;;;1.10;;
38238;SDS011;24035;48.900;9.188;2022-10-16T06:23:47;2.13;;;0.80;;
38238;SDS011;24035;48.900;9.188;2022-10-16T06:26:14;4.70;;;1.23;;
38238;SDS011;24035;48.900;9.188;2022-10-16T06:28:42;3.35;;;0.68;;
38238;SDS011;24035;48.900;9.188;2022-10-16T06:31:08;2.30;;;0.90;;
38238;SDS011;24035;48.900;9.188;2022-10-16T06:33:35;2.33;;;0.80;;
38238;SDS011;24035;48.900;9.188;2022-10-16T06:36:03;3.00;;;1.00;;
38238;SDS011;24035;48.900;9.188;2022-10-16T06:38:30;1.85;;;0.80;;
38238;SDS011;24035;48.900;9.188;2022-10-16T06:41:03;2.25;;;0.77;;
38238;SDS011;24035;48.900;9.188;2022-10-16T06:43:30;3.30;;;0.90;;
38238;SDS011;24035;48.900;9.188;2022-10-16T06:45:57;2.13;;;0.90;;
38238;SDS011;24035;48.900;9.188;2022-10-16T06:48:24;2.40;;;0.95;;
38238;SDS011;24035;48.900;9.188;2022-10-16T06:51:33;2.08;;;0.82;;
38238;SDS011;24035;48.900;9.188;2022-10-16T06:53:45;2.50;;;0.85;;
38238;SDS011;24035;48.900;9.188;2022-10-16T06:56:16;3.00;;;0.70;;
38238;SDS011;24035;48.900;9.188;2022-10-16T06:58:44;2.88;;;1.05;;
38238;SDS011;24035;48.900;9.188;2022-10-16T07:01:11;1.83;;;0.60;;
38238;SDS011;24035;48.900;9.188;2022-10-16T07:03:41;3.30;;;1.00;;
38238;SDS011;24035;48.900;9.188;2022-10-16T07:06:09;1.45;;;0.70;;
38238;SDS011;24035;48.900;9.188;2022-10-16T07:08:37;1.48;;;0.60;;
38238;SDS011;24035;48.900;9.188;2022-10-16T07:11:05;2.15;;;0.75;;
38238;SDS011;24035;48.900;9.188;2022-10-16T07:13:33;3.38;;;0.98;;
38238;SDS011;24035;48.900;9.188;2022-10-16T07:16:09;2.38;;;1.10;;
38238;SDS011;24035;48.900;9.188;2022-10-16T07:18:45;4.88;;;1.20;;
38238;SDS011;24035;48.900;9.188;2022-10-16T07:21:14;4.85;;;1.73;;
38238;SDS011;24035;48.900;9.188;2022-10-16T07:23:44;3.47;;;1.25;;
38238;SDS011;24035;48.900;9.188;2022-10-16T07:26:11;3.97;;;1.52;;
38238;SDS011;24035;48.900;9.188;2022-10-16T07:28:37;4.90;;;2.20;;
38238;SDS011;24035;48.900;9.188;2022-10-16T07:31:05;4.50;;;1.67;;
38238;SDS011;24035;48.900;9.188;2022-10-16T07:33:34;5.45;;;2.33;;
38238;SDS011;24035;48.900;9.188;2022-10-16T07:36:00;4.45;;;1.83;;
38238;SDS011;24035;48.900;9.188;2022-10-16T07:38:26;5.68;;;2.05;;
38238;SDS011;24035;48.900;9.188;2022-10-16T07:40:59;6.88;;;1.90;;
38238;SDS011;24035;48.900;9.188;2022-10-16T07:43:26;5.32;;;2.60;;
38238;SDS011;24035;48.900;9.188;2022-10-16T07:45:52;5.70;;;2.55;;
38238;SDS011;24035;48.900;9.188;2022-10-16T07:48:18;4.93;;;2.72;;
38238;SDS011;24035;48.900;9.188;2022-10-16T07:50:44;5.28;;;2.58;;
38238;SDS011;24035;48.900;9.188;2022-10-16T07:53:10;4.93;;;2.28;;
38238;SDS011;24035;48.900;9.188;2022-10-16T07:55:37;4.22;;;1.83;;
38238;SDS011;24035;48.900;9.188;2022-10-16T07:58:03;5.07;;;2.10;;
38238;SDS011;24035;48.900;9.188;2022-10-16T08:00:29;5.28;;;2.50;;
38238;SDS011;24035;48.900;9.188;2022-10-16T08:02:56;3.70;;;1.73;;
38238;SDS011;24035;48.900;9.188;2022-10-16T08:05:25;4.53;;;1.40;;
38238;SDS011;24035;48.900;9.188;2022-10-16T08:07:55;4.50;;;0.60;;
38238;SDS011;24035;48.900;9.188;2022-10-16T08:10:22;2.58;;;1.00;;
38238;SDS011;24035;48.900;9.188;2022-10-16T08:12:50;1.70;;;0.52;;
38238;SDS011;24035;48.900;9.188;2022-10-16T08:15:16;2.35;;;0.73;;
38238;SDS011;24035;48.900;9.188;2022-10-16T08:17:42;4.35;;;0.80;;
38238;SDS011;24035;48.900;9.188;2022-10-16T08:20:09;2.42;;;0.60;;
38238;SDS011;24035;48.900;9.188;2022-10-16T08:22:35;2.08;;;0.70;;
38238;SDS011;24035;48.900;9.188;2022-10-16T08:25:01;1.35;;;0.50;;
38238;SDS011;24035;48.900;9.188;2022-10-16T08:27:33;1.33;;;0.45;;
38238;SDS011;24035;48.900;9.188;2022-10-16T08:29:58;4.93;;;0.63;;
38238;SDS011;24035;48.900;9.188;2022-10-16T08:32:24;1.63;;;0.55;;
38238;SDS011;24035;48.900;9.188;2022-10-16T08:34:50;1.58;;;0.52;;
38238;SDS011;24035;48.900;9.188;2022-10-16T08:37:15;1.40;;;0.60;;
38238;SDS011;24035;48.900;9.188;2022-10-16T08:39:41;2.05;;;0.60;;
38238;SDS011;24035;48.900;9.188;2022-10-16T08:42:21;3.15;;;0.95;;
38238;SDS011;24035;48.900;9.188;2022-10-16T08:48:18;6.95;;;1.25;;
38238;SDS011;24035;48.900;9.188;2022-10-16T08:51:04;1.00;;;0.50;;
38238;SDS011;24035;48.900;9.188;2022-10-16T08:54:15;1.95;;;0.63;;
38238;SDS011;24035;48.900;9.188;2022-10-16T08:56:21;2.53;;;0.63;;
38238;SDS011;24035;48.900;9.188;2022-10-16T08:58:47;2.35;;;0.57;;
38238;SDS011;24035;48.900;9.188;2022-10-16T09:01:15;1.80;;;0.77;;
38238;SDS011;24035;48.900;9.188;2022-10-16T09:12:11;2.45;;;1.02;;
38238;SDS011;24035;48.900;9.188;2022-10-16T09:17:42;1.40;;;0.50;;
38238;SDS011;24035;48.900;9.188;2022-10-16T09:20:42;3.10;;;0.63;;
38238;SDS011;24035;48.900;9.188;2022-10-16T09:23:15;2.20;;;0.77;;
38238;SDS011;24035;48.900;9.188;2022-10-16T09:25:48;2.45;;;0.80;;
38238;SDS011;24035;48.900;9.188;2022-10-16T09:28:15;1.23;;;0.60;;
38238;SDS011;24035;48.900;9.188;2022-10-16T09:30:43;1.58;;;0.75;;
38238;SDS011;24035;48.900;9.188;2022-10-16T09:33:10;1.63;;;0.50;;
38238;SDS011;24035;48.900;9.188;2022-10-16T09:35:42;1.23;;;0.60;;
38238;SDS011;24035;48.900;9.188;2022-10-16T09:38:21;1.75;;;0.70;;
38238;SDS011;24035;48.900;9.188;2022-10-16T09:40:58;2.42;;;0.50;;
38238;SDS011;24035;48.900;9.188;2022-10-16T09:46:09;2.10;;;0.60;;
38238;SDS011;24035;48.900;9.188;2022-10-16T09:48:50;3.38;;;0.63;;
38238;SDS011;24035;48.900;9.188;2022-10-16T09:53:57;1.45;;;0.65;;
38238;SDS011;24035;48.900;9.188;2022-10-16T09:56:31;1.95;;;0.70;;
38238;SDS011;24035;48.900;9.188;2022-10-16T10:01:35;2.58;;;0.88;;
38238;SDS011;24035;48.900;9.188;2022-10-16T10:04:03;2.78;;;0.80;;
38238;SDS011;24035;48.900;9.188;2022-10-16T10:16:45;2.35;;;0.75;;
38238;SDS011;24035;48.900;9.188;2022-10-16T10:19:18;1.50;;;0.60;;
38238;SDS011;24035;48.900;9.188;2022-10-16T10:21:46;5.88;;;1.77;;
38238;SDS011;24035;48.900;9.188;2022-10-16T10:24:13;2.15;;;0.57;;
38238;SDS011;24035;48.900;9.188;2022-10-16T10:32:01;2.55;;;1.00;;
38238;SDS011;24035;48.900;9.188;2022-10-16T10:37:32;3.92;;;1.42;;
38238;SDS011;24035;48.900;9.188;2022-10-16T10:55:39;1.33;;;0.50;;
38238;SDS011;24035;48.900;9.188;2022-10-16T10:58:21;2.95;;;1.45;;
38238;SDS011;24035;48.900;9.188;2022-10-16T11:06:25;1.60;;;0.60;;
38238;SDS011;24035;48.900;9.188;2022-10-16T11:09:15;3.13;;;1.05;;
38238;SDS011;24035;48.900;9.188;2022-10-16T11:11:47;2.25;;;0.60;;
38238;SDS011;24035;48.900;9.188;2022-10-16T11:14:36;3.67;;;0.55;;
38238;SDS011;24035;48.900;9.188;2022-10-16T11:17:25;2.17;;;0.80;;
38238;SDS011;24035;48.900;9.188;2022-10-16T11:20:00;1.93;;;0.60;;
38238;SDS011;24035;48.900;9.188;2022-10-16T11:22:38;2.28;;;0.52;;
38238;SDS011;24035;48.900;9.188;2022-10-16T11:25:23;1.98;;;0.75;;
38238;SDS011;24035;48.900;9.188;2022-10-16T11:28:14;2.67;;;0.82;;
38238;SDS011;24035;48.900;9.188;2022-10-16T11:31:13;1.67;;;0.55;;
38238;SDS011;24035;48.900;9.188;2022-10-16T11:33:49;3.60;;;0.50;;
38238;SDS011;24035;48.900;9.188;2022-10-16T11:36:32;1.20;;;0.40;;
38238;SDS011;24035;48.900;9.188;2022-10-16T11:41:53;1.58;;;0.50;;
38238;SDS011;24035;48.900;9.188;2022-10-16T11:49:47;5.70;;;1.88;;
38238;SDS011;24035;48.900;9.188;2022-10-16T11:55:13;1.35;;;0.50;;
38238;SDS011;24035;48.900;9.188;2022-10-16T11:57:42;0.90;;;0.40;;
38238;SDS011;24035;48.900;9.188;2022-10-16T12:08:26;2.25;;;0.43;;
38238;SDS011;24035;48.900;9.188;2022-10-16T12:10:52;2.83;;;0.52;;
38238;SDS011;24035;48.900;9.188;2022-10-16T12:13:30;1.77;;;0.60;;
38238;SDS011;24035;48.900;9.188;2022-10-16T12:16:19;2.50;;;1.20;;
38238;SDS011;24035;48.900;9.188;2022-10-16T12:18:47;0.70;;;0.30;;
38238;SDS011;24035;48.900;9.188;2022-10-16T12:21:14;1.70;;;0.57;;
38238;SDS011;24035;48.900;9.188;2022-10-16T12:26:23;3.13;;;0.68;;
38238;SDS011;24035;48.900;9.188;2022-10-16T12:28:53;3.30;;;0.40;;
38238;SDS011;24035;48.900;9.188;2022-10-16T12:31:20;2.25;;;0.60;;
38238;SDS011;24035;48.900;9.188;2022-10-16T12:33:57;2.03;;;0.70;;
38238;SDS011;24035;48.900;9.188;2022-10-16T12:38:56;1.20;;;0.40;;
38238;SDS011;24035;48.900;9.188;2022-10-16T12:41:32;2.17;;;0.68;;
38238;SDS011;24035;48.900;9.188;2022-10-16T12:44:00;1.35;;;0.60;;
38238;SDS011;24035;48.900;9.188;2022-10-16T12:51:39;1.70;;;0.50;;
38238;SDS011;24035;48.900;9.188;2022-10-16T13:12:57;2.40;;;0.57;;
38238;SDS011;24035;48.900;9.188;2022-10-16T13:15:35;1.50;;;0.50;;
38238;SDS011;24035;48.900;9.188;2022-10-16T13:20:56;1.60;;;0.50;;
38238;SDS011;24035;48.900;9.188;2022-10-16T13:29:33;2.13;;;0.52;;
38238;SDS011;24035;48.900;9.188;2022-10-16T13:32:00;1.85;;;0.55;;
38238;SDS011;24035;48.900;9.188;2022-10-16T13:34:26;1.70;;;0.60;;
38238;SDS011;24035;48.900;9.188;2022-10-16T13:36:53;1.90;;;0.60;;
38238;SDS011;24035;48.900;9.188;2022-10-16T13:39:23;1.67;;;0.63;;
38238;SDS011;24035;48.900;9.188;2022-10-16T13:42:02;1.33;;;0.52;;
38238;SDS011;24035;48.900;9.188;2022-10-16T13:44:48;2.28;;;0.70;;
38238;SDS011;24035;48.900;9.188;2022-10-16T13:47:17;3.05;;;0.60;;
38238;SDS011;24035;48.900;9.188;2022-10-16T13:49:45;1.77;;;0.52;;
38238;SDS011;24035;48.900;9.188;2022-10-16T13:52:17;1.33;;;0.55;;
38238;SDS011;24035;48.900;9.188;2022-10-16T13:54:44;1.30;;;0.43;;
38238;SDS011;24035;48.900;9.188;2022-10-16T13:57:13;4.65;;;0.50;;
38238;SDS011;24035;48.900;9.188;2022-10-16T13:59:40;2.15;;;0.75;;
38238;SDS011;24035;48.900;9.188;2022-10-16T14:02:26;1.63;;;0.70;;
38238;SDS011;24035;48.900;9.188;2022-10-16T14:05:04;1.42;;;0.57;;
38238;SDS011;24035;48.900;9.188;2022-10-16T14:07:35;2.15;;;0.52;;
38238;SDS011;24035;48.900;9.188;2022-10-16T14:10:02;2.38;;;0.63;;
38238;SDS011;24035;48.900;9.188;2022-10-16T14:12:31;2.88;;;0.60;;
38238;SDS011;24035;48.900;9.188;2022-10-16T14:14:57;2.15;;;0.57;;
38238;SDS011;24035;48.900;9.188;2022-10-16T14:17:25;1.70;;;0.50;;
38238;SDS011;24035;48.900;9.188;2022-10-16T14:19:54;1.38;;;0.50;;
38238;SDS011;24035;48.900;9.188;2022-10-16T14:22:35;1.65;;;0.60;;
38238;SDS011;24035;48.900;9.188;2022-10-16T14:25:01;1.20;;;0.50;;
38238;SDS011;24035;48.900;9.188;2022-10-16T14:30:52;1.38;;;0.30;;
38238;SDS011;24035;48.900;9.188;2022-10-16T14:33:24;2.25;;;0.60;;
38238;SDS011;24035;48.900;9.188;2022-10-16T14:38:29;2.25;;;0.52;;
38238;SDS011;24035;48.900;9.188;2022-10-16T14:40:57;2.70;;;0.55;;
38238;SDS011;24035;48.900;9.188;2022-10-16T14:43:49;1.05;;;0.50;;
38238;SDS011;24035;48.900;9.188;2022-10-16T14:46:14;2.67;;;1.00;;
38238;SDS011;24035;48.900;9.188;2022-10-16T14:48:43;2.17;;;0.80;;
38238;SDS011;24035;48.900;9.188;2022-10-16T14:51:17;1.77;;;0.70;;
38238;SDS011;24035;48.900;9.188;2022-10-16T14:56:59;2.28;;;0.70;;
38238;SDS011;24035;48.900;9.188;2022-10-16T14:59:29;2.70;;;0.73;;
38238;SDS011;24035;48.900;9.188;2022-10-16T15:02:43;3.20;;;0.90;;
38238;SDS011;24035;48.900;9.188;2022-10-16T15:04:53;4.03;;;0.80;;
38238;SDS011;24035;48.900;9.188;2022-10-16T15:07:18;3.70;;;1.00;;
38238;SDS011;24035;48.900;9.188;2022-10-16T15:09:44;2.13;;;0.70;;
38238;SDS011;24035;48.900;9.188;2022-10-16T15:12:10;1.45;;;0.68;;
38238;SDS011;24035;48.900;9.188;2022-10-16T15:14:36;4.00;;;0.80;;
38238;SDS011;24035;48.900;9.188;2022-10-16T15:17:02;1.92;;;0.52;;
38238;SDS011;24035;48.900;9.188;2022-10-16T15:19:28;1.25;;;0.57;;
38238;SDS011;24035;48.900;9.188;2022-10-16T15:21:54;2.33;;;0.70;;
38238;SDS011;24035;48.900;9.188;2022-10-16T15:24:20;1.58;;;0.68;;
38238;SDS011;24035;48.900;9.188;2022-10-16T15:26:45;1.33;;;0.57;;
38238;SDS011;24035;48.900;9.188;2022-10-16T15:29:12;1.92;;;0.80;;
38238;SDS011;24035;48.900;9.188;2022-10-16T15:31:38;1.77;;;0.70;;
38238;SDS011;24035;48.900;9.188;2022-10-16T15:34:04;1.20;;;0.40;;
38238;SDS011;24035;48.900;9.188;2022-10-16T15:36:32;1.67;;;0.70;;
38238;SDS011;24035;48.900;9.188;2022-10-16T15:39:01;2.38;;;0.93;;
38238;SDS011;24035;48.900;9.188;2022-10-16T15:41:30;2.22;;;0.98;;
38238;SDS011;24035;48.900;9.188;2022-10-16T15:43:56;1.92;;;0.80;;
38238;SDS011;24035;48.900;9.188;2022-10-16T15:46:22;2.05;;;0.82;;
38238;SDS011;24035;48.900;9.188;2022-10-16T15:48:49;5.53;;;1.20;;
38238;SDS011;24035;48.900;9.188;2022-10-16T15:51:20;3.13;;;0.70;;
38238;SDS011;24035;48.900;9.188;2022-10-16T15:57:07;3.20;;;1.00;;
38238;SDS011;24035;48.900;9.188;2022-10-16T15:59:33;4.32;;;1.10;;
38238;SDS011;24035;48.900;9.188;2022-10-16T16:01:59;1.85;;;0.70;;
38238;SDS011;24035;48.900;9.188;2022-10-16T16:04:24;5.47;;;0.77;;
38238;SDS011;24035;48.900;9.188;2022-10-16T16:09:53;1.63;;;0.80;;
38238;SDS011;24035;48.900;9.188;2022-10-16T16:12:19;2.45;;;0.88;;
38238;SDS011;24035;48.900;9.188;2022-10-16T16:14:44;2.50;;;0.80;;
38238;SDS011;24035;48.900;9.188;2022-10-16T16:17:13;2.47;;;0.88;;
38238;SDS011;24035;48.900;9.188;2022-10-16T16:19:39;2.95;;;1.02;;
38238;SDS011;24035;48.900;9.188;2022-10-16T16:22:05;2.58;;;1.00;;
38238;SDS011;24035;48.900;9.188;2022-10-16T16:24:31;3.63;;;1.15;;
38238;SDS011;24035;48.900;9.188;2022-10-16T16:26:56;2.10;;;0.80;;
38238;SDS011;24035;48.900;9.188;2022-10-16T16:29:22;2.80;;;1.00;;
38238;SDS011;24035;48.900;9.188;2022-10-16T16:31:48;3.53;;;1.00;;
38238;SDS011;24035;48.900;9.188;2022-10-16T16:34:13;3.00;;;0.80;;
38238;SDS011;24035;48.900;9.188;2022-10-16T16:36:39;3.10;;;1.08;;
38238;SDS011;24035;48.900;9.188;2022-10-16T16:39:05;2.80;;;0.88;;
38238;SDS011;24035;48.900;9.188;2022-10-16T16:41:32;1.88;;;0.75;;
38238;SDS011;24035;48.900;9.188;2022-10-16T16:44:03;2.70;;;0.77;;
38238;SDS011;24035;48.900;9.188;2022-10-16T16:46:31;1.20;;;0.70;;
38238;SDS011;24035;48.900;9.188;2022-10-16T16:48:57;3.05;;;1.00;;
38238;SDS011;24035;48.900;9.188;2022-10-16T16:51:24;3.03;;;1.00;;
38238;SDS011;24035;48.900;9.188;2022-10-16T16:53:50;2.88;;;0.77;;
38238;SDS011;24035;48.900;9.188;2022-10-16T16:56:17;3.08;;;1.08;;
38238;SDS011;24035;48.900;9.188;2022-10-16T16:58:45;2.78;;;1.33;;
38238;SDS011;24035;48.900;9.188;2022-10-16T17:01:11;2.88;;;1.02;;
38238;SDS011;24035;48.900;9.188;2022-10-16T17:03:38;2.30;;;0.90;;
38238;SDS011;24035;48.900;9.188;2022-10-16T17:06:07;4.18;;;1.00;;
38238;SDS011;24035;48.900;9.188;2022-10-16T17:08:34;5.15;;;2.28;;
38238;SDS011;24035;48.900;9.188;2022-10-16T17:11:00;6.97;;;1.10;;
38238;SDS011;24035;48.900;9.188;2022-10-16T17:13:30;2.08;;;0.82;;
38238;SDS011;24035;48.900;9.188;2022-10-16T17:15:59;5.10;;;1.05;;
38238;SDS011;24035;48.900;9.188;2022-10-16T17:18:26;3.88;;;1.42;;